createdAt,value
2022-08-07T00:01:44.218Z,98229.06
2022-08-07T00:04:09.494Z,98237.97
2022-08-07T00:06:41.026Z,98254.50
2022-08-07T00:09:22.383Z,98247.41
2022-08-07T00:11:55.324Z,98226.91
2022-08-07T00:14:25.445Z,98253.69
2022-08-07T00:17:01.867Z,98235.59
2022-08-07T00:19:59.892Z,98225.78
2022-08-07T00:22:24.514Z,98249.50
2022-08-07T00:25:02.751Z,98229.75
2022-08-07T00:27:51.918Z,98217.47
2022-08-07T00:30:27.485Z,98242.97
2022-08-07T00:32:59.994Z,98202.06
2022-08-07T00:35:29.602Z,98235.41
2022-08-07T00:38:00.193Z,98202.75
2022-08-07T00:40:39.394Z,98234.88
2022-08-07T00:43:09.758Z,98236.38
2022-08-07T00:45:38.741Z,98232.03
2022-08-07T00:48:09.129Z,98237.03
2022-08-07T00:50:46.142Z,98219.28
2022-08-07T00:53:17.851Z,98218.94
2022-08-07T00:56:03.131Z,98205.53
2022-08-07T00:58:32.616Z,98215.66
2022-08-07T01:00:59.622Z,98215.84
2022-08-07T01:03:54.891Z,98219.25
2022-08-07T01:06:16.756Z,98224.97
2022-08-07T01:08:53.372Z,98238.16
2022-08-07T01:12:09.779Z,98215.00
2022-08-07T01:14:08.796Z,98224.25
2022-08-07T01:16:36.935Z,98227.78
2022-08-07T01:19:10.859Z,98249.84
2022-08-07T01:21:48.226Z,98235.38
2022-08-07T01:24:21.144Z,98239.97
2022-08-07T01:26:52.161Z,98226.44
2022-08-07T01:29:21.984Z,98218.16
2022-08-07T01:31:49.792Z,98214.31
2022-08-07T01:34:18.673Z,98230.75
2022-08-07T01:36:52.744Z,98243.53
2022-08-07T01:39:41.201Z,98207.94
2022-08-07T01:42:38.917Z,98252.81
2022-08-07T01:45:03.301Z,98232.06
2022-08-07T01:48:21.369Z,98232.53
2022-08-07T01:50:16.938Z,98241.78
2022-08-07T01:53:00.933Z,98245.09
2022-08-07T01:55:34.364Z,98250.91
2022-08-07T01:58:28.856Z,98232.19
2022-08-07T02:01:09.892Z,98236.50
2022-08-07T02:03:56.599Z,98230.34
2022-08-07T02:06:32.027Z,98236.38
2022-08-07T02:09:03.518Z,98241.94
2022-08-07T02:12:03.038Z,98243.41
2022-08-07T02:14:40.411Z,98210.06
2022-08-07T02:17:10.991Z,98221.41
2022-08-07T02:20:07.617Z,98197.94
2022-08-07T02:22:29.584Z,98230.50
2022-08-07T02:24:58.867Z,98225.75
2022-08-07T02:27:34.284Z,98222.25
2022-08-07T02:30:07.216Z,98241.22
2022-08-07T02:32:39.436Z,98204.78
2022-08-07T02:35:11.409Z,98249.63
2022-08-07T02:37:48.367Z,98240.75
2022-08-07T02:40:30.987Z,98233.31
2022-08-07T02:43:07.986Z,98225.69
2022-08-07T02:45:59.117Z,98207.16
2022-08-07T02:48:28.330Z,98218.53
2022-08-07T02:50:58.918Z,98221.19
2022-08-07T02:53:39.145Z,98197.91
2022-08-07T02:56:20.979Z,98208.66
2022-08-07T02:58:51.451Z,98221.84
2022-08-07T03:01:36.667Z,98221.84
2022-08-07T03:04:12.972Z,98235.44
2022-08-07T03:06:48.351Z,98231.94
2022-08-07T03:09:43.329Z,98205.56
2022-08-07T03:12:08.092Z,98234.63
2022-08-07T03:14:48.604Z,98199.63
2022-08-07T03:17:19.146Z,98203.97
2022-08-07T03:19:55.251Z,98206.66
2022-08-07T03:22:24.142Z,98221.06
2022-08-07T03:25:00.403Z,98218.19
2022-08-07T03:27:30.286Z,98188.13
2022-08-07T03:29:58.951Z,98185.84
2022-08-07T03:32:36.109Z,98231.84
2022-08-07T03:35:17.548Z,98215.16
2022-08-07T03:37:54.028Z,98230.81
2022-08-07T03:40:23.566Z,98231.63
2022-08-07T03:42:55.751Z,98206.72
2022-08-07T03:45:30.711Z,98228.53
2022-08-07T03:47:58.802Z,98207.09
2022-08-07T03:50:28.576Z,98212.25
2022-08-07T03:52:58.717Z,98221.31
2022-08-07T03:55:57.312Z,98233.91
2022-08-07T03:59:06.700Z,98233.91
2022-08-07T04:01:01.074Z,98227.53
2022-08-07T04:03:28.098Z,98233.72
2022-08-07T04:06:38.473Z,98216.78
2022-08-07T04:09:03.007Z,98230.41
2022-08-07T04:12:26.571Z,98244.19
2022-08-07T04:14:37.631Z,98233.91
2022-08-07T04:17:05.198Z,98208.09
2022-08-07T04:19:51.198Z,98232.59
2022-08-07T04:22:19.527Z,98234.91
2022-08-07T04:24:50.633Z,98242.72
2022-08-07T04:27:25.398Z,98218.81
2022-08-07T04:30:01.650Z,98221.88
2022-08-07T04:32:34.428Z,98221.06
2022-08-07T04:35:07.332Z,98248.91
2022-08-07T04:38:01.228Z,98231.78
2022-08-07T04:40:30.008Z,98247.63
2022-08-07T04:43:02.070Z,98254.44
2022-08-07T04:45:57.894Z,98251.75
2022-08-07T04:49:14.852Z,98260.59
2022-08-07T04:51:50.766Z,98259.78
2022-08-07T04:54:40.414Z,98246.63
2022-08-07T04:58:11.157Z,98261.44
2022-08-07T05:00:14.637Z,98259.31
2022-08-07T05:02:57.094Z,98259.53
2022-08-07T05:05:53.255Z,98259.28
2022-08-07T05:09:01.458Z,98262.19
2022-08-07T05:11:58.590Z,98254.34
2022-08-07T05:14:55.986Z,98271.44
2022-08-07T05:18:00.599Z,98276.59
2022-08-07T05:20:10.011Z,98280.34
2022-08-07T05:22:41.234Z,98271.31
2022-08-07T05:25:11.862Z,98273.59
2022-08-07T05:28:15.968Z,98275.84
2022-08-07T05:30:47.648Z,98283.69
2022-08-07T05:33:15.707Z,98290.47
2022-08-07T05:35:46.014Z,98289.66
2022-08-07T05:38:58.326Z,98298.91
2022-08-07T05:41:12.004Z,98296.41
2022-08-07T05:44:07.537Z,98293.78
2022-08-07T05:46:31.027Z,98296.66
2022-08-07T05:48:59.510Z,98302.88
2022-08-07T05:51:31.573Z,98298.16
2022-08-07T05:54:12.098Z,98301.88
2022-08-07T05:56:51.287Z,98297.56
2022-08-07T05:59:21.052Z,98300.25
2022-08-07T06:01:49.903Z,98297.34
2022-08-07T06:04:19.813Z,98306.22
2022-08-07T06:06:56.396Z,98304.78
2022-08-07T06:10:04.348Z,98299.44
2022-08-07T06:12:12.491Z,98296.97
2022-08-07T06:14:43.197Z,98289.16
2022-08-07T06:17:19.321Z,98305.25
2022-08-07T06:20:03.459Z,98288.50
2022-08-07T06:22:36.886Z,98286.00
2022-08-07T06:25:10.286Z,98298.38
2022-08-07T06:28:00.623Z,98297.28
2022-08-07T06:30:31.800Z,98304.56
2022-08-07T06:33:05.239Z,98289.31
2022-08-07T06:35:45.525Z,98308.25
2022-08-07T06:38:19.216Z,98302.78
2022-08-07T06:40:50.354Z,98306.22
2022-08-07T06:43:20.975Z,98303.00
2022-08-07T06:45:48.976Z,98304.00
2022-08-07T06:48:15.864Z,98304.28
2022-08-07T06:50:53.111Z,98298.56
2022-08-07T06:55:29.814Z,98297.34
2022-08-07T06:56:15.517Z,98297.88
2022-08-07T07:00:14.348Z,98303.69
2022-08-07T07:01:43.651Z,98289.84
2022-08-07T07:04:32.063Z,98286.09
2022-08-07T07:07:01.314Z,98282.25
2022-08-07T07:09:31.856Z,98303.03
2022-08-07T07:12:19.718Z,98307.44
2022-08-07T07:15:23.635Z,98299.97
2022-08-07T07:18:09.385Z,98297.53
2022-08-07T07:20:42.141Z,98300.97
2022-08-07T07:24:08.259Z,98288.53
2022-08-07T07:26:31.455Z,98301.25
2022-08-07T07:29:39.320Z,98293.56
2022-08-07T07:31:49.366Z,98295.34
2022-08-07T07:34:30.533Z,98293.75
2022-08-07T07:37:14.434Z,98285.72
2022-08-07T07:39:54.893Z,98292.34
2022-08-07T07:42:34.820Z,98265.28
2022-08-07T07:45:04.470Z,98284.81
2022-08-07T07:47:42.636Z,98293.47
2022-08-07T07:50:35.564Z,98284.28
2022-08-07T07:53:20.462Z,98282.44
2022-08-07T07:55:54.754Z,98285.25
2022-08-07T07:58:27.912Z,98292.56
2022-08-07T08:00:58.722Z,98276.56
2022-08-07T08:04:09.856Z,98288.75
2022-08-07T08:06:19.340Z,98270.66
2022-08-07T08:08:49.349Z,98277.41
2022-08-07T08:11:18.191Z,98274.13
2022-08-07T08:14:04.448Z,98286.25
2022-08-07T08:16:38.546Z,98280.13
2022-08-07T08:20:15.930Z,98256.75
2022-08-07T08:22:21.421Z,98256.03
2022-08-07T08:25:41.737Z,98264.28
2022-08-07T08:28:12.461Z,98265.41
2022-08-07T08:30:51.359Z,98273.91
2022-08-07T08:33:28.742Z,98256.03
2022-08-07T08:36:01.733Z,98271.63
2022-08-07T08:38:38.626Z,98272.50
2022-08-07T08:41:57.063Z,98269.22
2022-08-07T08:44:44.311Z,98265.06
2022-08-07T08:47:52.758Z,98262.56
2022-08-07T08:50:39.091Z,98263.53
2022-08-07T08:53:44.105Z,98258.53
2022-08-07T08:56:17.345Z,98261.59
2022-08-07T08:59:12.779Z,98256.13
2022-08-07T09:02:11.069Z,98255.34
2022-08-07T09:04:49.639Z,98240.56
2022-08-07T09:07:46.481Z,98247.38
2022-08-07T09:10:33.885Z,98247.00
2022-08-07T09:13:09.438Z,98228.00
2022-08-07T09:16:29.595Z,98209.31
2022-08-07T09:19:50.865Z,98231.47
2022-08-07T09:24:29.139Z,98234.13
2022-08-07T09:25:18.007Z,98222.38
2022-08-07T09:28:02.991Z,98229.97
2022-08-07T09:30:54.752Z,98225.34
2022-08-07T09:33:58.238Z,98218.34
2022-08-07T09:36:35.698Z,98203.78
2022-08-07T09:39:52.504Z,98218.13
2022-08-07T09:42:10.176Z,98185.41
2022-08-07T09:47:20.202Z,98220.72
2022-08-07T09:48:50.184Z,98218.78
2022-08-07T09:52:10.755Z,98230.72
2022-08-07T09:54:18.024Z,98227.28
2022-08-07T09:56:57.337Z,98232.59
2022-08-07T09:59:46.474Z,98228.09
2022-08-07T10:02:39.684Z,98224.53
2022-08-07T10:05:58.076Z,98218.91
2022-08-07T10:08:36.631Z,98216.53
2022-08-07T10:12:00.099Z,98213.69
2022-08-07T10:14:23.155Z,98211.66
2022-08-07T10:17:10.577Z,98205.28
2022-08-07T10:19:53.199Z,98214.72
2022-08-07T10:22:43.139Z,98207.72
2022-08-07T10:25:23.609Z,98202.09
2022-08-07T10:28:29.189Z,98185.22
2022-08-07T10:31:14.986Z,98193.06
2022-08-07T10:34:27.335Z,98178.41
2022-08-07T10:37:05.598Z,98200.63
2022-08-07T10:40:05.672Z,98201.47
2022-08-07T10:42:46.351Z,98193.19
2022-08-07T10:45:57.697Z,98165.59
2022-08-07T10:48:39.457Z,98183.28
2022-08-07T10:51:57.705Z,98181.91
2022-08-07T10:54:18.728Z,98178.31
2022-08-07T10:57:00.625Z,98172.63
2022-08-07T10:59:59.000Z,98172.63
2022-08-07T11:02:38.020Z,98170.25
2022-08-07T11:05:48.909Z,98155.78
2022-08-07T11:08:34.459Z,98162.09
2022-08-07T11:11:12.682Z,98151.38
2022-08-07T11:14:46.027Z,98156.31
2022-08-07T11:17:13.146Z,98155.72
2022-08-07T11:20:05.083Z,98150.00
2022-08-07T11:22:45.946Z,98140.50
2022-08-07T11:25:27.181Z,98153.41
2022-08-07T11:28:27.954Z,98160.97
2022-08-07T11:31:08.870Z,98134.94
2022-08-07T11:34:06.496Z,98150.91
2022-08-07T11:37:04.956Z,98142.56
2022-08-07T11:39:59.013Z,98145.84
2022-08-07T11:42:33.078Z,98138.66
2022-08-07T11:45:20.671Z,98128.88
2022-08-07T11:48:18.298Z,98123.19
2022-08-07T11:50:57.656Z,98125.34
2022-08-07T11:53:36.104Z,98130.00
2022-08-07T11:56:35.650Z,98129.31
2022-08-07T12:00:11.749Z,98128.91
2022-08-07T12:03:03.848Z,98130.34
2022-08-07T12:06:37.980Z,98123.66
2022-08-07T12:09:23.380Z,98120.88
2022-08-07T12:12:10.450Z,98117.66
2022-08-07T12:14:56.198Z,98111.88
2022-08-07T12:17:38.275Z,98095.56
2022-08-07T12:20:20.772Z,98106.47
2022-08-07T12:23:15.486Z,98103.34
2022-08-07T12:26:05.311Z,98108.09
2022-08-07T12:28:58.941Z,98105.03
2022-08-07T12:32:01.924Z,98106.50
2022-08-07T12:34:25.973Z,98123.88
2022-08-07T12:36:56.394Z,98098.69
2022-08-07T12:39:43.772Z,98106.25
2022-08-07T12:42:15.921Z,98105.84
2022-08-07T12:44:46.416Z,98101.72
2022-08-07T12:47:43.944Z,98088.09
2022-08-07T12:50:54.339Z,98086.19
2022-08-07T12:54:37.017Z,98090.84
2022-08-07T12:57:09.419Z,98083.75
2022-08-07T12:59:54.278Z,98102.59
2022-08-07T13:02:50.819Z,98091.41
2022-08-07T13:06:02.709Z,98087.63
2022-08-07T13:08:38.694Z,98084.13
2022-08-07T13:11:31.342Z,98078.13
2022-08-07T13:14:51.483Z,98077.19
2022-08-07T13:17:40.043Z,98065.59
2022-08-07T13:20:18.348Z,98072.94
2022-08-07T13:22:53.411Z,98073.75
2022-08-07T13:25:31.041Z,98054.88
2022-08-07T13:28:11.272Z,98056.94
2022-08-07T13:30:49.168Z,98065.94
2022-08-07T13:34:33.384Z,98065.38
2022-08-07T13:36:41.806Z,98059.97
2022-08-07T13:39:28.606Z,98047.16
2022-08-07T13:42:14.271Z,98057.44
2022-08-07T13:45:11.522Z,98050.50
2022-08-07T13:48:05.247Z,98053.66
2022-08-07T13:50:34.507Z,98056.09
2022-08-07T13:53:21.813Z,98050.34
2022-08-07T13:55:54.550Z,98051.09
2022-08-07T13:58:43.278Z,98050.75
2022-08-07T14:01:24.830Z,98042.19
2022-08-07T14:04:07.236Z,98038.59
2022-08-07T14:06:39.080Z,98033.81
2022-08-07T14:09:07.314Z,98025.34
2022-08-07T14:11:53.693Z,98041.38
2022-08-07T14:14:51.431Z,98017.47
2022-08-07T14:17:51.617Z,98024.22
2022-08-07T14:20:43.048Z,98027.59
2022-08-07T14:23:31.596Z,98006.97
2022-08-07T14:26:28.063Z,98015.91
2022-08-07T14:29:05.873Z,98015.81
2022-08-07T14:31:42.790Z,98001.88
2022-08-07T14:34:12.121Z,98004.19
2022-08-07T14:36:56.401Z,97993.16
2022-08-07T14:40:16.725Z,98001.13
2022-08-07T14:42:20.639Z,97993.53
2022-08-07T14:44:53.671Z,97989.50
2022-08-07T14:47:21.158Z,97987.38
2022-08-07T14:49:56.836Z,97993.91
2022-08-07T14:52:28.816Z,97983.34
2022-08-07T14:54:58.498Z,97977.88
2022-08-07T14:57:54.397Z,97989.84
2022-08-07T15:00:20.866Z,97977.69
2022-08-07T15:02:59.138Z,97986.75
2022-08-07T15:05:30.173Z,97991.16
2022-08-07T15:07:59.800Z,97985.88
2022-08-07T15:10:30.000Z,97979.03
2022-08-07T15:16:02.334Z,97988.69
2022-08-07T15:18:40.209Z,97989.66
2022-08-07T15:25:15.779Z,97990.16
2022-08-07T15:27:04.521Z,97988.78
2022-08-07T15:30:16.532Z,97991.38
2022-08-07T15:32:51.149Z,97973.63
2022-08-07T15:36:04.886Z,97985.38
2022-08-07T15:38:30.000Z,97972.81
2022-08-07T15:41:23.398Z,97979.97
2022-08-07T15:44:08.123Z,97981.47
2022-08-07T15:46:51.769Z,97969.94
2022-08-07T15:52:13.657Z,97968.88
2022-08-07T15:54:44.362Z,97952.41
2022-08-07T15:57:39.482Z,97967.84
2022-08-07T16:00:06.845Z,97956.31
2022-08-07T16:02:47.019Z,97962.63
2022-08-07T16:05:20.530Z,97954.31
2022-08-07T16:08:30.420Z,97943.28
2022-08-07T16:10:47.231Z,97959.94
2022-08-07T16:13:58.952Z,97950.78
2022-08-07T16:16:57.096Z,97956.75
2022-08-07T16:19:59.147Z,97947.84
2022-08-07T16:22:33.957Z,97947.09
2022-08-07T16:25:52.541Z,97945.53
2022-08-07T16:30:08.294Z,97935.66
2022-08-07T16:31:57.702Z,97935.34
2022-08-07T16:34:39.574Z,97934.09
2022-08-07T16:38:07.272Z,97935.25
2022-08-07T16:40:30.770Z,97944.53
2022-08-07T16:43:16.988Z,97940.66
2022-08-07T16:46:41.047Z,97934.00
2022-08-07T16:50:27.247Z,97925.72
2022-08-07T16:52:51.174Z,97935.09
2022-08-07T16:55:28.203Z,97937.81
2022-08-07T16:58:54.334Z,97922.06
2022-08-07T17:44:15.636Z,97937.38
2022-08-07T17:47:03.097Z,97936.28
2022-08-07T17:49:52.199Z,97943.78
2022-08-07T17:52:36.854Z,97945.06
2022-08-07T17:55:14.208Z,97941.78
2022-08-07T17:58:07.118Z,97936.00
2022-08-07T18:00:48.810Z,97950.28
2022-08-07T18:03:25.537Z,97956.06
2022-08-07T18:06:06.367Z,97952.31
2022-08-07T18:09:01.220Z,97962.59
2022-08-07T18:12:16.739Z,97952.84
2022-08-07T18:14:46.447Z,97972.84
2022-08-07T18:18:46.223Z,97977.66
2022-08-07T18:21:07.459Z,97974.53
2022-08-07T18:23:46.686Z,97973.81
2022-08-07T18:26:20.612Z,97965.47
2022-08-07T18:30:07.621Z,97984.25
2022-08-07T18:32:29.908Z,97982.44
2022-08-07T18:35:15.938Z,97992.59
2022-08-07T18:38:58.643Z,97995.66
2022-08-07T18:41:08.088Z,97987.84
2022-08-07T18:43:43.209Z,97996.31
2022-08-07T18:47:08.853Z,98006.44
2022-08-07T18:50:32.922Z,98008.09
2022-08-07T18:52:57.889Z,98016.59
2022-08-07T18:55:41.913Z,98020.72
2022-08-07T18:58:33.728Z,98019.41
2022-08-07T19:02:17.151Z,98022.94
2022-08-07T19:04:37.921Z,98032.78
2022-08-07T19:08:05.263Z,98021.66
2022-08-07T19:10:51.849Z,98028.69
2022-08-07T19:13:22.282Z,98037.72
2022-08-07T19:17:00.376Z,98038.50
2022-08-07T19:19:31.971Z,98051.84
2022-08-07T19:22:11.215Z,98023.56
2022-08-07T19:24:44.596Z,98052.91
2022-08-07T19:28:56.736Z,98037.13
2022-08-07T19:30:55.743Z,98058.56
2022-08-07T19:33:08.305Z,98058.53
2022-08-07T19:35:42.076Z,98057.41
2022-08-07T19:38:17.013Z,98073.16
2022-08-07T19:40:50.427Z,98056.31
2022-08-07T19:43:50.277Z,98074.25
2022-08-07T19:46:13.744Z,98051.63
2022-08-07T19:48:53.492Z,98073.09
2022-08-07T19:51:50.873Z,98074.44
2022-08-07T19:54:35.360Z,98073.28
2022-08-07T19:58:01.693Z,98067.81
2022-08-07T19:59:53.351Z,98070.19
2022-08-07T20:02:41.102Z,98081.28
2022-08-07T20:05:28.130Z,98078.53
2022-08-07T20:08:02.269Z,98081.47
2022-08-07T20:10:36.312Z,98087.72
2022-08-07T20:13:26.947Z,98097.16
2022-08-07T20:16:01.078Z,98087.84
2022-08-07T20:18:34.506Z,98087.00
2022-08-07T20:21:14.547Z,98098.38
2022-08-07T20:24:04.113Z,98106.16
2022-08-07T20:26:44.892Z,98105.75
2022-08-07T20:29:49.158Z,98110.34
2022-08-07T20:32:22.290Z,98122.00
2022-08-07T20:34:55.067Z,98121.63
2022-08-07T20:37:25.155Z,98120.19
2022-08-07T20:40:02.693Z,98098.34
2022-08-07T20:42:32.300Z,98134.72
2022-08-07T20:45:01.366Z,98123.25
2022-08-07T20:47:56.061Z,98109.09
2022-08-07T20:50:21.069Z,98123.44
2022-08-07T20:52:51.100Z,98111.91
2022-08-07T20:55:23.852Z,98128.22
2022-08-07T20:58:03.865Z,98120.72
2022-08-07T21:00:46.050Z,98122.59
2022-08-07T21:03:19.268Z,98131.28
2022-08-07T21:05:56.868Z,98127.91
2022-08-07T21:08:37.653Z,98133.53
2022-08-07T21:11:12.023Z,98135.88
2022-08-07T21:14:16.240Z,98145.25
2022-08-07T21:18:00.575Z,98149.47
2022-08-07T21:19:51.616Z,98146.38
2022-08-07T21:22:28.898Z,98139.19
2022-08-07T21:25:12.263Z,98149.34
2022-08-07T21:28:01.789Z,98149.84
2022-08-07T21:30:47.048Z,98150.00
2022-08-07T21:33:22.576Z,98161.97
2022-08-07T21:36:32.024Z,98156.72
2022-08-07T21:39:45.935Z,98154.34
2022-08-07T21:42:42.688Z,98154.84
2022-08-07T21:46:11.145Z,98151.06
2022-08-07T21:48:56.648Z,98171.00
2022-08-07T21:51:51.080Z,98165.25
2022-08-07T21:54:24.315Z,98164.09
2022-08-07T21:56:54.914Z,98167.75
2022-08-07T22:00:04.948Z,98167.94
2022-08-07T22:02:56.743Z,98163.28
2022-08-07T22:05:44.580Z,98165.66
2022-08-07T22:08:14.428Z,98162.63
2022-08-07T22:10:49.750Z,98163.91
2022-08-07T22:13:17.236Z,98162.88
2022-08-07T22:16:42.992Z,98166.13
2022-08-07T22:19:01.025Z,98160.94
2022-08-07T22:22:05.306Z,98167.25
2022-08-07T22:24:41.032Z,98166.72
2022-08-07T22:27:18.659Z,98181.31
2022-08-07T22:29:55.145Z,98180.03
2022-08-07T22:32:42.260Z,98182.47
2022-08-07T22:35:11.563Z,98175.81
2022-08-07T22:38:03.001Z,98182.16
2022-08-07T22:40:56.915Z,98187.56
2022-08-07T22:43:33.926Z,98162.38
2022-08-07T22:47:02.175Z,98184.16
2022-08-07T22:49:39.130Z,98184.84
2022-08-07T22:52:11.698Z,98199.50
2022-08-07T22:55:17.443Z,98196.88
2022-08-07T22:58:10.088Z,98187.22
2022-08-07T23:00:51.703Z,98185.91
2022-08-07T23:03:21.278Z,98182.97
2022-08-07T23:06:27.605Z,98181.19
2022-08-07T23:10:06.297Z,98175.66
2022-08-07T23:12:34.012Z,98183.56
2022-08-07T23:16:06.869Z,98172.13
2022-08-07T23:19:16.818Z,98172.88
2022-08-07T23:22:11.268Z,98169.22
2022-08-07T23:25:16.194Z,98168.72
2022-08-07T23:28:21.155Z,98168.56
2022-08-07T23:31:11.318Z,98164.31
2022-08-07T23:34:34.063Z,98155.47
2022-08-07T23:37:29.388Z,98150.47
2022-08-07T23:40:22.920Z,98144.22
2022-08-07T23:43:16.716Z,98148.75
2022-08-07T23:46:10.509Z,98149.00
2022-08-07T23:49:00.310Z,98152.56
2022-08-07T23:52:59.977Z,98157.94
2022-08-07T23:54:44.244Z,98162.72
2022-08-07T23:57:30.668Z,98156.31
